sensor_id;sensor_type;location;lat;lon;timestamp;P1;durP1;ratioP1;P2;durP2;ratioP2
11761;SDS011;5938;47.098;15.474;2024-01-10T00:02:48;35.37;;;5.83;;
11761;SDS011;5938;47.098;15.474;2024-01-10T00:06:51;34.70;;;7.50;;
11761;SDS011;5938;47.098;15.474;2024-01-10T00:10:54;37.13;;;6.93;;
11761;SDS011;5938;47.098;15.474;2024-01-10T00:14:58;33.07;;;6.20;;
11761;SDS011;5938;47.098;15.474;2024-01-10T00:19:03;36.13;;;7.30;;
11761;SDS011;5938;47.098;15.474;2024-01-10T00:23:07;34.17;;;6.03;;
11761;SDS011;5938;47.098;15.474;2024-01-10T00:27:10;34.20;;;6.37;;
11761;SDS011;5938;47.098;15.474;2024-01-10T00:31:13;35.27;;;6.30;;
11761;SDS011;5938;47.098;15.474;2024-01-10T00:35:18;39.23;;;7.63;;
11761;SDS011;5938;47.098;15.474;2024-01-10T00:39:22;34.27;;;6.23;;
11761;SDS011;5938;47.098;15.474;2024-01-10T00:43:25;38.43;;;7.30;;
11761;SDS011;5938;47.098;15.474;2024-01-10T00:47:29;35.40;;;5.97;;
11761;SDS011;5938;47.098;15.474;2024-01-10T00:51:43;38.07;;;5.87;;
11761;SDS011;5938;47.098;15.474;2024-01-10T00:55:48;38.30;;;7.10;;
11761;SDS011;5938;47.098;15.474;2024-01-10T00:59:55;41.20;;;6.80;;
11761;SDS011;5938;47.098;15.474;2024-01-10T01:04:00;36.73;;;6.90;;
11761;SDS011;5938;47.098;15.474;2024-01-10T01:08:07;36.67;;;7.60;;
11761;SDS011;5938;47.098;15.474;2024-01-10T01:12:12;34.80;;;6.60;;
11761;SDS011;5938;47.098;15.474;2024-01-10T01:16:17;34.87;;;6.27;;
11761;SDS011;5938;47.098;15.474;2024-01-10T01:20:21;34.60;;;6.87;;
11761;SDS011;5938;47.098;15.474;2024-01-10T01:24:31;39.10;;;6.87;;
11761;SDS011;5938;47.098;15.474;2024-01-10T01:28:34;36.20;;;6.77;;
11761;SDS011;5938;47.098;15.474;2024-01-10T01:32:38;37.03;;;7.30;;
11761;SDS011;5938;47.098;15.474;2024-01-10T01:36:42;34.50;;;8.70;;
11761;SDS011;5938;47.098;15.474;2024-01-10T01:40:48;37.20;;;6.47;;
11761;SDS011;5938;47.098;15.474;2024-01-10T01:44:53;36.47;;;7.80;;
11761;SDS011;5938;47.098;15.474;2024-01-10T01:48:58;34.57;;;6.13;;
11761;SDS011;5938;47.098;15.474;2024-01-10T01:53:04;35.70;;;7.10;;
11761;SDS011;5938;47.098;15.474;2024-01-10T02:01:51;34.20;;;6.63;;
11761;SDS011;5938;47.098;15.474;2024-01-10T02:06:11;33.57;;;6.40;;
11761;SDS011;5938;47.098;15.474;2024-01-10T02:10:15;37.53;;;6.83;;
11761;SDS011;5938;47.098;15.474;2024-01-10T02:14:19;38.00;;;7.03;;
11761;SDS011;5938;47.098;15.474;2024-01-10T02:18:24;34.70;;;6.60;;
11761;SDS011;5938;47.098;15.474;2024-01-10T02:22:28;35.90;;;7.17;;
11761;SDS011;5938;47.098;15.474;2024-01-10T02:26:33;37.47;;;8.37;;
11761;SDS011;5938;47.098;15.474;2024-01-10T02:30:36;38.87;;;7.20;;
11761;SDS011;5938;47.098;15.474;2024-01-10T02:34:40;41.33;;;8.20;;
11761;SDS011;5938;47.098;15.474;2024-01-10T02:38:44;37.00;;;7.70;;
11761;SDS011;5938;47.098;15.474;2024-01-10T02:42:49;37.77;;;7.80;;
11761;SDS011;5938;47.098;15.474;2024-01-10T02:46:53;38.17;;;7.27;;
11761;SDS011;5938;47.098;15.474;2024-01-10T02:50:57;36.40;;;6.87;;
11761;SDS011;5938;47.098;15.474;2024-01-10T02:55:01;39.60;;;5.90;;
11761;SDS011;5938;47.098;15.474;2024-01-10T02:59:06;36.80;;;6.17;;
11761;SDS011;5938;47.098;15.474;2024-01-10T03:03:10;38.20;;;7.30;;
11761;SDS011;5938;47.098;15.474;2024-01-10T03:07:13;36.60;;;6.70;;
11761;SDS011;5938;47.098;15.474;2024-01-10T03:11:17;36.50;;;5.60;;
11761;SDS011;5938;47.098;15.474;2024-01-10T03:15:22;48.27;;;7.23;;
11761;SDS011;5938;47.098;15.474;2024-01-10T03:19:26;40.00;;;6.70;;
11761;SDS011;5938;47.098;15.474;2024-01-10T03:23:30;42.50;;;7.10;;
11761;SDS011;5938;47.098;15.474;2024-01-10T03:27:33;39.10;;;6.73;;
11761;SDS011;5938;47.098;15.474;2024-01-10T03:31:38;37.30;;;7.67;;
11761;SDS011;5938;47.098;15.474;2024-01-10T03:35:41;39.83;;;8.77;;
11761;SDS011;5938;47.098;15.474;2024-01-10T03:39:45;38.47;;;7.77;;
11761;SDS011;5938;47.098;15.474;2024-01-10T03:43:48;36.20;;;5.63;;
11761;SDS011;5938;47.098;15.474;2024-01-10T03:47:54;39.67;;;6.27;;
11761;SDS011;5938;47.098;15.474;2024-01-10T03:51:57;44.60;;;8.30;;
11761;SDS011;5938;47.098;15.474;2024-01-10T03:56:03;35.40;;;5.87;;
11761;SDS011;5938;47.098;15.474;2024-01-10T04:00:07;32.30;;;5.57;;
11761;SDS011;5938;47.098;15.474;2024-01-10T04:04:13;39.60;;;7.73;;
11761;SDS011;5938;47.098;15.474;2024-01-10T04:08:16;39.00;;;7.50;;
11761;SDS011;5938;47.098;15.474;2024-01-10T04:12:20;34.03;;;5.90;;
11761;SDS011;5938;47.098;15.474;2024-01-10T04:16:23;40.10;;;7.07;;
11761;SDS011;5938;47.098;15.474;2024-01-10T04:20:30;35.67;;;5.97;;
11761;SDS011;5938;47.098;15.474;2024-01-10T04:24:34;35.43;;;6.47;;
11761;SDS011;5938;47.098;15.474;2024-01-10T04:28:37;37.10;;;6.27;;
11761;SDS011;5938;47.098;15.474;2024-01-10T04:32:42;35.57;;;7.27;;
11761;SDS011;5938;47.098;15.474;2024-01-10T04:36:47;35.97;;;6.20;;
11761;SDS011;5938;47.098;15.474;2024-01-10T04:40:51;36.27;;;6.43;;
11761;SDS011;5938;47.098;15.474;2024-01-10T04:44:54;33.63;;;4.97;;
11761;SDS011;5938;47.098;15.474;2024-01-10T04:48:58;34.27;;;5.80;;
11761;SDS011;5938;47.098;15.474;2024-01-10T04:53:03;44.47;;;5.70;;
11761;SDS011;5938;47.098;15.474;2024-01-10T04:57:06;36.77;;;6.63;;
11761;SDS011;5938;47.098;15.474;2024-01-10T05:01:10;35.77;;;6.60;;
11761;SDS011;5938;47.098;15.474;2024-01-10T05:05:14;36.30;;;5.60;;
11761;SDS011;5938;47.098;15.474;2024-01-10T05:09:19;36.00;;;7.13;;
11761;SDS011;5938;47.098;15.474;2024-01-10T05:13:22;36.90;;;7.10;;
11761;SDS011;5938;47.098;15.474;2024-01-10T05:17:26;42.60;;;6.40;;
11761;SDS011;5938;47.098;15.474;2024-01-10T05:21:29;34.30;;;6.20;;
11761;SDS011;5938;47.098;15.474;2024-01-10T05:25:35;34.73;;;6.47;;
11761;SDS011;5938;47.098;15.474;2024-01-10T05:29:39;36.00;;;5.90;;
11761;SDS011;5938;47.098;15.474;2024-01-10T05:33:42;34.80;;;6.40;;
11761;SDS011;5938;47.098;15.474;2024-01-10T05:37:46;40.30;;;6.67;;
11761;SDS011;5938;47.098;15.474;2024-01-10T05:41:51;35.47;;;7.27;;
11761;SDS011;5938;47.098;15.474;2024-01-10T05:45:54;38.40;;;8.33;;
11761;SDS011;5938;47.098;15.474;2024-01-10T05:49:58;41.27;;;7.67;;
11761;SDS011;5938;47.098;15.474;2024-01-10T05:54:02;38.90;;;8.80;;
11761;SDS011;5938;47.098;15.474;2024-01-10T05:58:07;38.30;;;7.80;;
11761;SDS011;5938;47.098;15.474;2024-01-10T06:02:11;44.23;;;10.67;;
11761;SDS011;5938;47.098;15.474;2024-01-10T06:06:18;38.90;;;10.23;;
11761;SDS011;5938;47.098;15.474;2024-01-10T06:10:21;43.43;;;9.73;;
11761;SDS011;5938;47.098;15.474;2024-01-10T06:14:26;39.43;;;9.07;;
11761;SDS011;5938;47.098;15.474;2024-01-10T06:18:30;41.53;;;10.00;;
11761;SDS011;5938;47.098;15.474;2024-01-10T06:22:33;38.57;;;8.70;;
11761;SDS011;5938;47.098;15.474;2024-01-10T06:26:37;38.67;;;9.20;;
11761;SDS011;5938;47.098;15.474;2024-01-10T06:30:42;49.60;;;10.07;;
11761;SDS011;5938;47.098;15.474;2024-01-10T06:34:45;38.13;;;8.20;;
11761;SDS011;5938;47.098;15.474;2024-01-10T06:38:49;39.90;;;9.27;;
11761;SDS011;5938;47.098;15.474;2024-01-10T06:42:53;45.00;;;9.30;;
11761;SDS011;5938;47.098;15.474;2024-01-10T06:46:59;37.33;;;7.27;;
11761;SDS011;5938;47.098;15.474;2024-01-10T06:51:09;36.43;;;7.57;;
11761;SDS011;5938;47.098;15.474;2024-01-10T06:55:27;43.57;;;8.93;;
11761;SDS011;5938;47.098;15.474;2024-01-10T06:59:34;45.13;;;9.23;;
11761;SDS011;5938;47.098;15.474;2024-01-10T07:03:52;40.80;;;7.70;;
11761;SDS011;5938;47.098;15.474;2024-01-10T07:07:57;37.00;;;8.13;;
11761;SDS011;5938;47.098;15.474;2024-01-10T07:12:00;37.53;;;7.90;;
11761;SDS011;5938;47.098;15.474;2024-01-10T07:16:05;38.50;;;8.17;;
11761;SDS011;5938;47.098;15.474;2024-01-10T07:20:11;43.63;;;9.17;;
11761;SDS011;5938;47.098;15.474;2024-01-10T07:24:15;46.30;;;9.40;;
11761;SDS011;5938;47.098;15.474;2024-01-10T07:28:18;51.00;;;10.50;;
11761;SDS011;5938;47.098;15.474;2024-01-10T07:32:22;46.23;;;8.67;;
11761;SDS011;5938;47.098;15.474;2024-01-10T07:36:27;51.33;;;10.90;;
11761;SDS011;5938;47.098;15.474;2024-01-10T07:40:35;63.20;;;15.40;;
11761;SDS011;5938;47.098;15.474;2024-01-10T07:44:38;71.20;;;15.30;;
11761;SDS011;5938;47.098;15.474;2024-01-10T07:48:46;65.13;;;14.80;;
11761;SDS011;5938;47.098;15.474;2024-01-10T07:52:51;70.53;;;13.43;;
11761;SDS011;5938;47.098;15.474;2024-01-10T07:56:54;45.80;;;8.80;;
11761;SDS011;5938;47.098;15.474;2024-01-10T08:00:58;45.03;;;9.20;;
11761;SDS011;5938;47.098;15.474;2024-01-10T08:05:01;48.03;;;10.20;;
11761;SDS011;5938;47.098;15.474;2024-01-10T08:09:11;58.00;;;10.67;;
11761;SDS011;5938;47.098;15.474;2024-01-10T08:13:15;81.73;;;16.80;;
11761;SDS011;5938;47.098;15.474;2024-01-10T08:17:19;95.10;;;16.60;;
11761;SDS011;5938;47.098;15.474;2024-01-10T08:21:24;83.43;;;17.90;;
11761;SDS011;5938;47.098;15.474;2024-01-10T08:25:29;100.77;;;17.67;;
11761;SDS011;5938;47.098;15.474;2024-01-10T08:29:33;59.63;;;15.90;;
11761;SDS011;5938;47.098;15.474;2024-01-10T08:33:37;59.33;;;14.17;;
11761;SDS011;5938;47.098;15.474;2024-01-10T08:37:41;60.30;;;13.47;;
11761;SDS011;5938;47.098;15.474;2024-01-10T08:41:47;44.73;;;9.33;;
11761;SDS011;5938;47.098;15.474;2024-01-10T08:45:51;42.63;;;8.87;;
11761;SDS011;5938;47.098;15.474;2024-01-10T08:50:05;42.63;;;9.03;;
11761;SDS011;5938;47.098;15.474;2024-01-10T08:54:14;42.57;;;9.00;;
11761;SDS011;5938;47.098;15.474;2024-01-10T08:58:22;39.53;;;8.00;;
11761;SDS011;5938;47.098;15.474;2024-01-10T09:02:27;41.80;;;9.60;;
11761;SDS011;5938;47.098;15.474;2024-01-10T09:06:31;41.67;;;9.67;;
11761;SDS011;5938;47.098;15.474;2024-01-10T09:10:35;41.17;;;8.20;;
11761;SDS011;5938;47.098;15.474;2024-01-10T09:14:41;42.50;;;9.20;;
11761;SDS011;5938;47.098;15.474;2024-01-10T09:18:45;39.30;;;8.33;;
11761;SDS011;5938;47.098;15.474;2024-01-10T09:22:51;42.80;;;7.90;;
11761;SDS011;5938;47.098;15.474;2024-01-10T09:26:55;43.20;;;9.77;;
11761;SDS011;5938;47.098;15.474;2024-01-10T09:31:00;42.43;;;10.00;;
11761;SDS011;5938;47.098;15.474;2024-01-10T09:35:04;41.80;;;9.03;;
11761;SDS011;5938;47.098;15.474;2024-01-10T09:39:09;41.67;;;8.00;;
11761;SDS011;5938;47.098;15.474;2024-01-10T09:43:18;49.87;;;9.33;;
11761;SDS011;5938;47.098;15.474;2024-01-10T09:47:25;38.43;;;9.67;;
11761;SDS011;5938;47.098;15.474;2024-01-10T09:51:31;53.67;;;10.70;;
11761;SDS011;5938;47.098;15.474;2024-01-10T09:55:37;42.43;;;9.77;;
11761;SDS011;5938;47.098;15.474;2024-01-10T09:59:42;40.40;;;9.37;;
11761;SDS011;5938;47.098;15.474;2024-01-10T10:03:50;39.27;;;9.17;;
11761;SDS011;5938;47.098;15.474;2024-01-10T10:07:54;37.37;;;8.93;;
11761;SDS011;5938;47.098;15.474;2024-01-10T10:12:01;37.87;;;8.63;;
11761;SDS011;5938;47.098;15.474;2024-01-10T10:32:52;39.00;;;8.90;;
11761;SDS011;5938;47.098;15.474;2024-01-10T10:36:56;34.57;;;8.53;;
11761;SDS011;5938;47.098;15.474;2024-01-10T10:40:59;36.00;;;8.90;;
11761;SDS011;5938;47.098;15.474;2024-01-10T10:45:06;36.30;;;8.97;;
11761;SDS011;5938;47.098;15.474;2024-01-10T10:49:14;40.17;;;11.00;;
11761;SDS011;5938;47.098;15.474;2024-01-10T10:53:19;37.97;;;9.83;;
11761;SDS011;5938;47.098;15.474;2024-01-10T10:57:25;37.83;;;10.50;;
11761;SDS011;5938;47.098;15.474;2024-01-10T11:01:30;35.37;;;9.17;;
11761;SDS011;5938;47.098;15.474;2024-01-10T11:05:37;37.57;;;9.60;;
11761;SDS011;5938;47.098;15.474;2024-01-10T11:09:43;39.20;;;11.10;;
11761;SDS011;5938;47.098;15.474;2024-01-10T11:13:54;36.87;;;13.23;;
11761;SDS011;5938;47.098;15.474;2024-01-10T11:18:12;37.07;;;12.93;;
11761;SDS011;5938;47.098;15.474;2024-01-10T11:22:39;39.60;;;14.77;;
11761;SDS011;5938;47.098;15.474;2024-01-10T11:27:05;36.20;;;13.93;;
11761;SDS011;5938;47.098;15.474;2024-01-10T11:31:12;36.10;;;13.53;;
11761;SDS011;5938;47.098;15.474;2024-01-10T11:35:19;41.40;;;14.50;;
11761;SDS011;5938;47.098;15.474;2024-01-10T11:39:32;39.43;;;13.63;;
11761;SDS011;5938;47.098;15.474;2024-01-10T11:43:39;38.30;;;12.73;;
11761;SDS011;5938;47.098;15.474;2024-01-10T11:47:42;36.37;;;11.20;;
11761;SDS011;5938;47.098;15.474;2024-01-10T11:51:46;42.00;;;14.17;;
11761;SDS011;5938;47.098;15.474;2024-01-10T11:55:52;40.47;;;12.13;;
11761;SDS011;5938;47.098;15.474;2024-01-10T11:59:56;44.00;;;11.40;;
11761;SDS011;5938;47.098;15.474;2024-01-10T12:04:02;39.00;;;10.50;;
11761;SDS011;5938;47.098;15.474;2024-01-10T12:08:20;40.53;;;9.97;;
11761;SDS011;5938;47.098;15.474;2024-01-10T12:12:28;39.70;;;10.07;;
11761;SDS011;5938;47.098;15.474;2024-01-10T12:16:32;39.97;;;9.67;;
11761;SDS011;5938;47.098;15.474;2024-01-10T12:20:35;38.67;;;9.50;;
11761;SDS011;5938;47.098;15.474;2024-01-10T12:24:42;44.77;;;11.67;;
11761;SDS011;5938;47.098;15.474;2024-01-10T12:28:54;39.80;;;9.17;;
11761;SDS011;5938;47.098;15.474;2024-01-10T12:32:59;39.37;;;9.40;;
11761;SDS011;5938;47.098;15.474;2024-01-10T12:37:03;35.80;;;7.70;;
11761;SDS011;5938;47.098;15.474;2024-01-10T12:41:07;37.40;;;9.30;;
11761;SDS011;5938;47.098;15.474;2024-01-10T12:45:21;36.20;;;9.60;;
11761;SDS011;5938;47.098;15.474;2024-01-10T12:49:25;30.70;;;6.90;;
11761;SDS011;5938;47.098;15.474;2024-01-10T12:53:29;31.23;;;8.63;;
11761;SDS011;5938;47.098;15.474;2024-01-10T12:57:32;41.90;;;14.00;;
11761;SDS011;5938;47.098;15.474;2024-01-10T13:01:37;25.70;;;6.80;;
11761;SDS011;5938;47.098;15.474;2024-01-10T13:05:41;26.40;;;7.90;;
11761;SDS011;5938;47.098;15.474;2024-01-10T13:09:44;26.27;;;9.20;;
11761;SDS011;5938;47.098;15.474;2024-01-10T13:13:48;23.87;;;8.40;;
11761;SDS011;5938;47.098;15.474;2024-01-10T13:17:53;24.00;;;9.30;;
11761;SDS011;5938;47.098;15.474;2024-01-10T13:21:57;24.80;;;10.07;;
11761;SDS011;5938;47.098;15.474;2024-01-10T13:26:01;24.57;;;7.90;;
11761;SDS011;5938;47.098;15.474;2024-01-10T13:30:05;27.70;;;8.07;;
11761;SDS011;5938;47.098;15.474;2024-01-10T13:34:10;26.87;;;5.47;;
11761;SDS011;5938;47.098;15.474;2024-01-10T13:38:14;30.03;;;6.10;;
11761;SDS011;5938;47.098;15.474;2024-01-10T13:42:17;29.97;;;5.30;;
11761;SDS011;5938;47.098;15.474;2024-01-10T13:46:23;28.87;;;5.80;;
11761;SDS011;5938;47.098;15.474;2024-01-10T13:50:28;30.10;;;5.30;;
11761;SDS011;5938;47.098;15.474;2024-01-10T13:54:32;31.43;;;6.20;;
11761;SDS011;5938;47.098;15.474;2024-01-10T13:58:35;29.77;;;5.70;;
11761;SDS011;5938;47.098;15.474;2024-01-10T14:02:39;31.80;;;5.40;;
11761;SDS011;5938;47.098;15.474;2024-01-10T14:06:44;29.97;;;4.60;;
11761;SDS011;5938;47.098;15.474;2024-01-10T14:10:47;31.03;;;5.07;;
11761;SDS011;5938;47.098;15.474;2024-01-10T14:14:51;32.10;;;6.63;;
11761;SDS011;5938;47.098;15.474;2024-01-10T14:18:54;34.43;;;6.50;;
11761;SDS011;5938;47.098;15.474;2024-01-10T14:23:00;39.47;;;9.37;;
11761;SDS011;5938;47.098;15.474;2024-01-10T14:27:04;34.20;;;7.60;;
11761;SDS011;5938;47.098;15.474;2024-01-10T14:31:09;35.03;;;8.40;;
11761;SDS011;5938;47.098;15.474;2024-01-10T14:35:29;38.60;;;10.30;;
11761;SDS011;5938;47.098;15.474;2024-01-10T14:39:35;40.33;;;9.80;;
11761;SDS011;5938;47.098;15.474;2024-01-10T14:43:40;39.50;;;9.77;;
11761;SDS011;5938;47.098;15.474;2024-01-10T14:47:44;41.17;;;10.97;;
11761;SDS011;5938;47.098;15.474;2024-01-10T14:51:47;39.70;;;10.23;;
11761;SDS011;5938;47.098;15.474;2024-01-10T14:55:53;35.03;;;8.53;;
11761;SDS011;5938;47.098;15.474;2024-01-10T14:59:57;42.60;;;11.33;;
11761;SDS011;5938;47.098;15.474;2024-01-10T15:04:01;41.40;;;10.20;;
11761;SDS011;5938;47.098;15.474;2024-01-10T15:08:05;40.97;;;9.37;;
11761;SDS011;5938;47.098;15.474;2024-01-10T15:12:12;42.23;;;9.87;;
11761;SDS011;5938;47.098;15.474;2024-01-10T15:16:16;39.77;;;9.77;;
11761;SDS011;5938;47.098;15.474;2024-01-10T15:20:19;45.90;;;10.00;;
11761;SDS011;5938;47.098;15.474;2024-01-10T15:24:24;43.47;;;9.87;;
11761;SDS011;5938;47.098;15.474;2024-01-10T15:28:29;42.33;;;10.80;;
11761;SDS011;5938;47.098;15.474;2024-01-10T15:32:33;37.27;;;9.67;;
11761;SDS011;5938;47.098;15.474;2024-01-10T15:36:39;38.80;;;8.40;;
11761;SDS011;5938;47.098;15.474;2024-01-10T15:40:43;40.50;;;8.43;;
11761;SDS011;5938;47.098;15.474;2024-01-10T15:44:49;41.13;;;8.87;;
11761;SDS011;5938;47.098;15.474;2024-01-10T15:48:53;39.97;;;8.87;;
11761;SDS011;5938;47.098;15.474;2024-01-10T15:52:58;48.60;;;10.63;;
11761;SDS011;5938;47.098;15.474;2024-01-10T15:57:05;42.17;;;10.40;;
11761;SDS011;5938;47.098;15.474;2024-01-10T16:01:11;44.40;;;9.90;;
11761;SDS011;5938;47.098;15.474;2024-01-10T16:05:16;40.77;;;9.13;;
11761;SDS011;5938;47.098;15.474;2024-01-10T16:09:21;51.10;;;9.33;;
11761;SDS011;5938;47.098;15.474;2024-01-10T16:19:07;43.90;;;10.43;;
11761;SDS011;5938;47.098;15.474;2024-01-10T16:23:11;47.10;;;11.57;;
11761;SDS011;5938;47.098;15.474;2024-01-10T16:27:34;46.83;;;9.13;;
11761;SDS011;5938;47.098;15.474;2024-01-10T16:32:12;46.67;;;11.90;;
11761;SDS011;5938;47.098;15.474;2024-01-10T16:36:17;44.00;;;10.30;;
11761;SDS011;5938;47.098;15.474;2024-01-10T16:40:28;42.73;;;9.10;;
11761;SDS011;5938;47.098;15.474;2024-01-10T16:45:25;49.10;;;11.00;;
11761;SDS011;5938;47.098;15.474;2024-01-10T16:49:31;44.00;;;10.23;;
11761;SDS011;5938;47.098;15.474;2024-01-10T16:53:37;43.13;;;10.70;;
11761;SDS011;5938;47.098;15.474;2024-01-10T16:57:41;40.03;;;11.00;;
11761;SDS011;5938;47.098;15.474;2024-01-10T17:01:45;42.87;;;11.67;;
11761;SDS011;5938;47.098;15.474;2024-01-10T17:05:49;40.57;;;10.00;;
11761;SDS011;5938;47.098;15.474;2024-01-10T17:09:55;41.40;;;10.50;;
11761;SDS011;5938;47.098;15.474;2024-01-10T17:14:00;43.07;;;9.43;;
11761;SDS011;5938;47.098;15.474;2024-01-10T17:18:20;44.80;;;10.40;;
11761;SDS011;5938;47.098;15.474;2024-01-10T17:33:48;41.73;;;10.37;;
11761;SDS011;5938;47.098;15.474;2024-01-10T17:38:15;48.17;;;11.90;;
11761;SDS011;5938;47.098;15.474;2024-01-10T17:43:16;43.33;;;12.57;;
11761;SDS011;5938;47.098;15.474;2024-01-10T17:47:19;42.87;;;10.83;;
11761;SDS011;5938;47.098;15.474;2024-01-10T17:51:26;45.20;;;12.97;;
11761;SDS011;5938;47.098;15.474;2024-01-10T17:55:29;48.27;;;12.60;;
11761;SDS011;5938;47.098;15.474;2024-01-10T17:59:34;46.30;;;12.70;;
11761;SDS011;5938;47.098;15.474;2024-01-10T18:03:37;45.90;;;12.30;;
11761;SDS011;5938;47.098;15.474;2024-01-10T18:07:42;44.90;;;13.17;;
11761;SDS011;5938;47.098;15.474;2024-01-10T18:11:46;44.30;;;12.27;;
11761;SDS011;5938;47.098;15.474;2024-01-10T18:15:50;56.27;;;16.33;;
11761;SDS011;5938;47.098;15.474;2024-01-10T18:19:53;53.47;;;15.13;;
11761;SDS011;5938;47.098;15.474;2024-01-10T18:24:00;42.57;;;12.37;;
11761;SDS011;5938;47.098;15.474;2024-01-10T18:28:03;46.20;;;13.57;;
11761;SDS011;5938;47.098;15.474;2024-01-10T18:32:07;47.07;;;14.00;;
11761;SDS011;5938;47.098;15.474;2024-01-10T18:36:11;50.03;;;13.83;;
11761;SDS011;5938;47.098;15.474;2024-01-10T18:40:16;64.23;;;15.10;;
11761;SDS011;5938;47.098;15.474;2024-01-10T18:44:19;45.40;;;13.63;;
11761;SDS011;5938;47.098;15.474;2024-01-10T18:48:23;54.50;;;16.40;;
11761;SDS011;5938;47.098;15.474;2024-01-10T18:52:29;56.73;;;17.10;;
11761;SDS011;5938;47.098;15.474;2024-01-10T18:56:34;53.23;;;16.43;;
11761;SDS011;5938;47.098;15.474;2024-01-10T19:00:39;55.27;;;19.57;;
11761;SDS011;5938;47.098;15.474;2024-01-10T19:04:51;62.80;;;18.83;;
11761;SDS011;5938;47.098;15.474;2024-01-10T19:08:56;59.07;;;19.40;;
11761;SDS011;5938;47.098;15.474;2024-01-10T19:13:08;56.93;;;19.47;;
11761;SDS011;5938;47.098;15.474;2024-01-10T19:17:13;50.60;;;16.00;;
11761;SDS011;5938;47.098;15.474;2024-01-10T19:21:18;62.13;;;20.80;;
11761;SDS011;5938;47.098;15.474;2024-01-10T19:25:22;63.97;;;19.13;;
11761;SDS011;5938;47.098;15.474;2024-01-10T19:29:27;59.27;;;15.40;;
11761;SDS011;5938;47.098;15.474;2024-01-10T19:33:31;49.10;;;14.10;;
11761;SDS011;5938;47.098;15.474;2024-01-10T20:15:45;50.80;;;13.20;;
11761;SDS011;5938;47.098;15.474;2024-01-10T20:19:51;54.77;;;15.60;;
11761;SDS011;5938;47.098;15.474;2024-01-10T20:24:15;46.43;;;13.20;;
11761;SDS011;5938;47.098;15.474;2024-01-10T20:28:21;53.67;;;14.00;;
11761;SDS011;5938;47.098;15.474;2024-01-10T20:32:29;59.90;;;13.40;;
11761;SDS011;5938;47.098;15.474;2024-01-10T20:36:36;54.23;;;14.83;;
11761;SDS011;5938;47.098;15.474;2024-01-10T20:40:40;57.77;;;16.00;;
11761;SDS011;5938;47.098;15.474;2024-01-10T20:44:47;53.80;;;14.33;;
11761;SDS011;5938;47.098;15.474;2024-01-10T20:48:53;43.80;;;12.43;;
11761;SDS011;5938;47.098;15.474;2024-01-10T20:52:58;45.10;;;12.73;;
11761;SDS011;5938;47.098;15.474;2024-01-10T20:57:01;47.17;;;13.40;;
11761;SDS011;5938;47.098;15.474;2024-01-10T21:01:05;48.07;;;11.97;;
11761;SDS011;5938;47.098;15.474;2024-01-10T21:05:12;50.20;;;15.37;;
11761;SDS011;5938;47.098;15.474;2024-01-10T21:09:15;46.03;;;13.60;;
11761;SDS011;5938;47.098;15.474;2024-01-10T21:13:19;43.40;;;11.97;;
11761;SDS011;5938;47.098;15.474;2024-01-10T21:17:22;55.03;;;15.30;;
11761;SDS011;5938;47.098;15.474;2024-01-10T21:21:28;45.23;;;13.67;;
11761;SDS011;5938;47.098;15.474;2024-01-10T21:25:32;48.03;;;14.47;;
11761;SDS011;5938;47.098;15.474;2024-01-10T21:29:35;46.33;;;13.30;;
11761;SDS011;5938;47.098;15.474;2024-01-10T21:33:39;53.10;;;14.90;;
11761;SDS011;5938;47.098;15.474;2024-01-10T21:37:44;46.83;;;13.83;;
11761;SDS011;5938;47.098;15.474;2024-01-10T21:41:49;54.93;;;15.23;;
11761;SDS011;5938;47.098;15.474;2024-01-10T21:45:53;59.27;;;14.00;;
11761;SDS011;5938;47.098;15.474;2024-01-10T21:49:56;52.30;;;15.07;;
11761;SDS011;5938;47.098;15.474;2024-01-10T21:54:02;57.13;;;14.20;;
11761;SDS011;5938;47.098;15.474;2024-01-10T21:58:06;57.60;;;15.80;;
11761;SDS011;5938;47.098;15.474;2024-01-10T22:02:09;55.80;;;14.63;;
11761;SDS011;5938;47.098;15.474;2024-01-10T22:06:13;50.30;;;15.00;;
11761;SDS011;5938;47.098;15.474;2024-01-10T22:10:18;52.63;;;12.93;;
11761;SDS011;5938;47.098;15.474;2024-01-10T22:14:22;53.60;;;14.87;;
11761;SDS011;5938;47.098;15.474;2024-01-10T22:18:25;50.30;;;13.70;;
11761;SDS011;5938;47.098;15.474;2024-01-10T22:22:30;51.60;;;14.63;;
11761;SDS011;5938;47.098;15.474;2024-01-10T22:26:35;51.70;;;16.13;;
11761;SDS011;5938;47.098;15.474;2024-01-10T22:30:40;46.57;;;13.43;;
11761;SDS011;5938;47.098;15.474;2024-01-10T22:34:43;51.60;;;14.10;;
11761;SDS011;5938;47.098;15.474;2024-01-10T22:38:47;64.37;;;14.57;;
11761;SDS011;5938;47.098;15.474;2024-01-10T22:42:51;50.20;;;17.00;;
11761;SDS011;5938;47.098;15.474;2024-01-10T22:46:55;58.37;;;16.03;;
11761;SDS011;5938;47.098;15.474;2024-01-10T22:50:58;46.80;;;15.63;;
11761;SDS011;5938;47.098;15.474;2024-01-10T22:55:02;49.40;;;13.67;;
11761;SDS011;5938;47.098;15.474;2024-01-10T22:59:07;58.13;;;16.37;;
11761;SDS011;5938;47.098;15.474;2024-01-10T23:03:11;45.50;;;13.80;;
11761;SDS011;5938;47.098;15.474;2024-01-10T23:07:15;47.93;;;14.07;;
11761;SDS011;5938;47.098;15.474;2024-01-10T23:11:18;50.37;;;14.03;;
11761;SDS011;5938;47.098;15.474;2024-01-10T23:15:23;46.40;;;12.40;;
11761;SDS011;5938;47.098;15.474;2024-01-10T23:19:26;48.23;;;13.60;;
11761;SDS011;5938;47.098;15.474;2024-01-10T23:23:30;50.53;;;15.10;;
11761;SDS011;5938;47.098;15.474;2024-01-10T23:27:33;51.60;;;15.17;;
11761;SDS011;5938;47.098;15.474;2024-01-10T23:31:38;46.47;;;13.50;;
11761;SDS011;5938;47.098;15.474;2024-01-10T23:35:41;51.17;;;11.90;;
11761;SDS011;5938;47.098;15.474;2024-01-10T23:39:50;49.67;;;15.10;;
11761;SDS011;5938;47.098;15.474;2024-01-10T23:43:53;56.30;;;13.70;;
11761;SDS011;5938;47.098;15.474;2024-01-10T23:47:58;51.30;;;13.80;;
11761;SDS011;5938;47.098;15.474;2024-01-10T23:52:02;48.70;;;12.33;;
11761;SDS011;5938;47.098;15.474;2024-01-10T23:56:06;48.07;;;13.77;;
